createdAt,value
2023-03-29T00:00:40.990Z,23.6
2023-03-29T00:05:59.298Z,23.6
2023-03-29T00:11:17.565Z,23.6
2023-03-29T00:16:36.066Z,23.6
2023-03-29T00:21:54.404Z,23.6
2023-03-29T00:27:12.708Z,23.6
2023-03-29T00:32:31.231Z,23.6
2023-03-29T00:37:49.739Z,23.6
2023-03-29T00:43:08.025Z,23.6
2023-03-29T00:48:26.501Z,23.7
2023-03-29T00:53:44.667Z,23.7
2023-03-29T00:59:02.833Z,23.7
2023-03-29T01:04:21.258Z,23.7
2023-03-29T01:09:39.592Z,23.7
2023-03-29T01:14:57.988Z,23.8
2023-03-29T01:20:16.487Z,23.8
2023-03-29T01:25:34.471Z,23.8
2023-03-29T01:30:52.546Z,23.8
2023-03-29T01:36:11.065Z,23.8
2023-03-29T01:41:28.981Z,23.8
2023-03-29T01:46:46.869Z,23.8
2023-03-29T01:52:05.155Z,23.8
2023-03-29T01:57:23.494Z,23.8
2023-03-29T02:02:41.720Z,23.8
2023-03-29T02:08:00.474Z,23.8
2023-03-29T02:13:18.381Z,23.8
2023-03-29T02:18:36.483Z,23.8
2023-03-29T02:23:54.988Z,23.8
2023-03-29T02:29:13.142Z,23.8
2023-03-29T02:34:31.409Z,23.8
2023-03-29T02:39:49.687Z,23.8
2023-03-29T02:45:08.267Z,23.8
2023-03-29T02:50:26.576Z,23.8
2023-03-29T02:55:44.859Z,23.8
2023-03-29T03:01:03.541Z,23.9
2023-03-29T03:06:22.080Z,23.8
2023-03-29T03:11:40.384Z,23.9
2023-03-29T03:16:58.607Z,23.9
2023-03-29T03:22:16.631Z,23.9
2023-03-29T03:27:34.723Z,23.9
2023-03-29T03:32:52.789Z,23.9
2023-03-29T03:38:10.749Z,23.9
2023-03-29T03:43:29.027Z,23.9
2023-03-29T03:48:47.356Z,23.9
2023-03-29T03:54:05.622Z,23.9
2023-03-29T03:59:23.703Z,23.9
2023-03-29T04:04:42.179Z,23.8
2023-03-29T04:10:00.609Z,23.8
2023-03-29T04:15:19.070Z,23.8
2023-03-29T04:20:37.221Z,23.9
2023-03-29T04:25:55.492Z,23.8
2023-03-29T04:31:13.691Z,23.8
2023-03-29T04:36:31.878Z,23.8
2023-03-29T04:41:50.424Z,23.8
2023-03-29T04:47:08.512Z,23.8
2023-03-29T04:52:27.273Z,23.9
2023-03-29T04:57:45.364Z,23.5
2023-03-29T05:03:03.333Z,23.5
2023-03-29T05:08:21.284Z,23.5
2023-03-29T05:13:39.668Z,23.5
2023-03-29T05:18:57.968Z,23.6
2023-03-29T05:24:16.488Z,23.6
2023-03-29T05:29:34.624Z,23.6
2023-03-29T05:34:52.863Z,23.6
2023-03-29T05:40:11.396Z,23.6
2023-03-29T05:45:29.339Z,23.7
2023-03-29T05:50:47.519Z,23.7
2023-03-29T05:56:05.976Z,23.7
2023-03-29T06:01:24.320Z,23.7
2023-03-29T06:06:42.831Z,23.7
2023-03-29T06:12:01.155Z,23.8
2023-03-29T06:17:19.498Z,23.8
2023-03-29T06:22:37.867Z,23.8
2023-03-29T06:27:55.958Z,23.8
2023-03-29T06:33:14.015Z,23.9
2023-03-29T06:38:32.141Z,23.9
2023-03-29T06:43:50.261Z,23.8
2023-03-29T06:49:08.499Z,23.9
2023-03-29T06:54:26.409Z,23.9
2023-03-29T06:59:44.516Z,23.9
2023-03-29T07:05:02.917Z,23.9
2023-03-29T07:10:20.793Z,24
2023-03-29T07:15:39.084Z,24
2023-03-29T07:20:57.149Z,24
2023-03-29T07:26:30.030Z,24
2023-03-29T07:31:48.218Z,24
2023-03-29T07:37:06.284Z,24
2023-03-29T07:42:24.614Z,24
2023-03-29T07:47:42.805Z,24
2023-03-29T07:53:01.145Z,24
2023-03-29T07:58:19.228Z,24
2023-03-29T08:03:37.460Z,24
2023-03-29T08:08:55.698Z,24.1
2023-03-29T08:14:14.217Z,24.1
2023-03-29T08:19:32.398Z,24.1
2023-03-29T08:24:50.900Z,24.1
2023-03-29T08:30:09.160Z,24.2
2023-03-29T08:35:30.331Z,24.2
2023-03-29T08:40:48.438Z,24.2
2023-03-29T08:46:06.770Z,24.2
2023-03-29T08:51:24.889Z,24.3
2023-03-29T08:56:43.205Z,24.3
2023-03-29T09:02:01.657Z,24.3
2023-03-29T09:07:20.281Z,24.3
2023-03-29T09:12:38.558Z,24.3
2023-03-29T09:17:56.574Z,24.3
2023-03-29T09:23:15.013Z,24.3
2023-03-29T09:28:33.328Z,24.4
2023-03-29T09:33:51.725Z,24.4
2023-03-29T09:39:09.916Z,24.4
2023-03-29T09:44:31.738Z,24.5
2023-03-29T09:49:49.684Z,24.5
2023-03-29T09:55:08.068Z,24.5
2023-03-29T10:00:26.373Z,24.5
2023-03-29T10:05:44.261Z,24.6
2023-03-29T10:11:03.201Z,24.6
2023-03-29T10:16:22.728Z,24.6
2023-03-29T10:21:41.150Z,24.6
2023-03-29T10:26:59.739Z,24.6
2023-03-29T10:32:17.794Z,24.7
2023-03-29T10:37:35.926Z,24.7
2023-03-29T10:42:54.283Z,24.7
2023-03-29T10:48:12.332Z,24.7
2023-03-29T10:53:30.600Z,24.7
2023-03-29T10:58:49.126Z,24.6
2023-03-29T11:04:07.424Z,24.6
2023-03-29T11:09:26.071Z,24.7
2023-03-29T11:14:44.404Z,24.6
2023-03-29T11:20:05.471Z,24.6
2023-03-29T11:25:23.756Z,24.6
2023-03-29T11:30:42.289Z,24.6
2023-03-29T11:36:00.393Z,24.6
2023-03-29T11:41:18.623Z,24.6
2023-03-29T11:46:37.334Z,24.6
2023-03-29T11:51:55.556Z,24.6
2023-03-29T11:57:13.810Z,24.5
2023-03-29T12:02:32.452Z,24.5
2023-03-29T12:07:50.724Z,24.5
2023-03-29T12:13:08.786Z,24.5
2023-03-29T12:18:27.339Z,24.5
2023-03-29T12:23:45.460Z,24.4
2023-03-29T12:29:03.547Z,24.4
2023-03-29T12:34:21.986Z,24.4
2023-03-29T12:39:40.275Z,24.4
2023-03-29T12:44:58.791Z,24.4
2023-03-29T12:50:16.998Z,24.3
2023-03-29T12:55:35.077Z,24.3
2023-03-29T13:00:53.080Z,24.3
2023-03-29T13:06:11.239Z,24.3
2023-03-29T13:11:29.614Z,24.3
2023-03-29T13:16:48.134Z,24.3
2023-03-29T13:22:06.629Z,24.2
2023-03-29T13:27:24.685Z,24.2
2023-03-29T13:32:43.213Z,24.2
2023-03-29T13:38:01.606Z,24.2
2023-03-29T13:43:19.556Z,24.2
2023-03-29T13:48:37.566Z,24.2
2023-03-29T13:53:56.102Z,24.2
2023-03-29T13:59:13.962Z,24.1
2023-03-29T14:04:32.435Z,24.1
2023-03-29T14:09:51.013Z,24.1
2023-03-29T14:15:09.114Z,24.1
2023-03-29T14:20:27.590Z,24.1
2023-03-29T14:25:45.959Z,24.1
2023-03-29T14:31:04.209Z,24.1
2023-03-29T14:36:22.638Z,24.1
2023-03-29T14:41:40.898Z,24.1
2023-03-29T14:46:58.984Z,24
2023-03-29T14:52:17.092Z,24.1
2023-03-29T14:57:35.417Z,24
2023-03-29T15:02:53.845Z,24
2023-03-29T15:08:11.976Z,24
2023-03-29T15:13:30.508Z,24
2023-03-29T15:18:49.390Z,24
2023-03-29T15:24:10.702Z,24
2023-03-29T15:29:28.629Z,24
2023-03-29T15:34:46.935Z,24
2023-03-29T15:40:05.426Z,24
2023-03-29T15:45:23.581Z,24
2023-03-29T15:50:42.593Z,24
2023-03-29T15:56:01.137Z,23.9
2023-03-29T16:01:20.370Z,23.9
2023-03-29T16:06:38.421Z,23.9
2023-03-29T16:11:56.657Z,23.9
2023-03-29T16:17:15.254Z,23.9
2023-03-29T16:22:33.513Z,23.9
2023-03-29T16:27:54.345Z,23.9
2023-03-29T16:33:12.621Z,23.9
2023-03-29T16:38:31.590Z,23.9
2023-03-29T16:43:49.851Z,23.9
2023-03-29T16:49:08.364Z,23.9
2023-03-29T16:54:26.733Z,23.8
2023-03-29T16:59:44.811Z,23.8
2023-03-29T17:05:03.318Z,23.8
2023-03-29T17:10:21.784Z,23.8
2023-03-29T17:15:43.388Z,23.7
2023-03-29T17:21:01.686Z,23.7
2023-03-29T17:26:20.027Z,23.7
2023-03-29T17:31:38.746Z,23.7
2023-03-29T17:36:56.831Z,23.7
2023-03-29T17:42:14.931Z,23.6
2023-03-29T17:47:33.496Z,23.6
2023-03-29T17:52:51.657Z,23.6
2023-03-29T17:58:10.096Z,23.7
2023-03-29T18:03:28.279Z,23.7
2023-03-29T18:08:46.640Z,23.7
2023-03-29T18:14:04.773Z,23.7
2023-03-29T18:19:23.111Z,23.7
2023-03-29T18:24:41.220Z,23.7
2023-03-29T18:29:59.126Z,23.7
2023-03-29T18:35:17.401Z,23.6
2023-03-29T18:40:35.595Z,23.6
2023-03-29T18:45:53.723Z,23.6
2023-03-29T18:51:12.053Z,23.6
2023-03-29T18:56:30.850Z,23.6
2023-03-29T19:01:49.063Z,23.5
2023-03-29T19:07:07.104Z,23.5
2023-03-29T19:12:25.453Z,23.5
2023-03-29T19:17:44.069Z,23.5
2023-03-29T19:23:02.206Z,23.5
2023-03-29T19:28:20.538Z,23.5
2023-03-29T19:33:38.786Z,23.5
2023-03-29T19:38:57.067Z,23.4
2023-03-29T19:44:14.959Z,23.4
2023-03-29T19:49:37.417Z,23.4
2023-03-29T19:54:55.663Z,23.4
2023-03-29T20:00:13.623Z,23.4
2023-03-29T20:05:31.840Z,23.4
2023-03-29T20:10:50.094Z,23.4
2023-03-29T20:16:08.247Z,23.4
2023-03-29T20:21:26.417Z,23.4
2023-03-29T20:26:44.496Z,23.4
2023-03-29T20:32:03.424Z,23.4
2023-03-29T20:37:22.138Z,23.4
2023-03-29T20:42:40.323Z,23.4
2023-03-29T20:47:58.457Z,23.4
2023-03-29T20:53:16.959Z,23.4
2023-03-29T20:58:35.237Z,23.4
2023-03-29T21:03:53.432Z,23.4
2023-03-29T21:09:11.862Z,23.4
2023-03-29T21:14:30.152Z,23.4
2023-03-29T21:19:48.489Z,23.3
2023-03-29T21:25:07.225Z,23.3
2023-03-29T21:30:25.317Z,23.3
2023-03-29T21:35:43.500Z,23.3
2023-03-29T21:41:01.983Z,23.3
2023-03-29T21:46:20.703Z,23.3
2023-03-29T21:51:39.279Z,23.3
2023-03-29T21:56:57.597Z,23.3
2023-03-29T22:02:15.839Z,23.3
2023-03-29T22:07:33.958Z,23.3
2023-03-29T22:12:52.231Z,23.3
2023-03-29T22:18:10.442Z,23.3
2023-03-29T22:23:28.433Z,23.3
2023-03-29T22:28:46.529Z,23.2
2023-03-29T22:34:04.859Z,23.2
2023-03-29T22:39:23.154Z,23.2
2023-03-29T22:44:41.462Z,23.2
2023-03-29T22:50:00.204Z,23.2
2023-03-29T22:55:18.512Z,23.2
2023-03-29T23:00:36.595Z,23.2
2023-03-29T23:05:54.737Z,23.2
2023-03-29T23:11:12.885Z,23.2
2023-03-29T23:16:30.905Z,23.2
2023-03-29T23:21:33.509Z,23.2
2023-03-29T23:26:52.113Z,23.2
2023-03-29T23:32:10.571Z,23.2
2023-03-29T23:37:28.538Z,23.2
2023-03-29T23:42:46.652Z,23.2
2023-03-29T23:48:05.193Z,23.1
2023-03-29T23:53:23.291Z,23.1
2023-03-29T23:58:41.285Z,23.2
